Have a Safe July 4th! 

Flight Track Log - Related Links

Times and Time Zones

All times are in EDT time to prevent confusion due to time zone crossing. See the SWA641 flight status page for this flight to view local times or setup timezone preferences in your user account.

Time Position Orientation Groundspeed Altitude Reporting Facility
EDT Latitude Longitude Course Direction KTS MPH feet Rate Location/Type
Mon 06:15:44 AM 38.9500 -77.5167 288° West 173 199 2,200  Level Potomac TRACON
Mon 06:16:32 AM 38.9333 -77.5833 252° West 219 252 4,300 2,264 Climbing Potomac TRACON
Mon 06:17:30 AM 38.9311 -77.6517 268° West 228 262 6,200 2,817 Climbing Washington Center
Mon 06:18:27 AM 38.9378 -77.7586 275° West 259 298 9,700 2,874 Climbing Washington Center
Mon 06:19:29 AM 38.9400 -77.8547 272° West 288 331 11,900 3,322 Climbing Washington Center
Mon 06:20:28 AM 38.9481 -77.9806 275° West 314 361 16,400 3,800 Climbing Washington Center
Mon 06:21:00 AM 38.9326 -78.1636 288° West  Level FlightAware Approximate
Mon 06:21:29 AM 38.9542 -78.0956 274° West 329 379 19,500  Level Washington Center
Mon 06:22:30 AM 38.9619 -78.2186 275° West 336 387 22,500 2,876 Climbing Washington Center
Mon 06:23:30 AM 38.9653 -78.3442 272° West 348 400 25,300 2,462 Climbing Washington Center
Mon 06:24:27 AM 38.9686 -78.4697 272° West 354 407 27,300 2,218 Climbing Washington Center
Mon 06:25:29 AM 38.9722 -78.5847 272° West 348 400 29,700 2,066 Climbing Washington Center
Mon 06:26:29 AM 38.9753 -78.7078 272° West 348 400 31,500 1,815 Climbing Washington Center
Mon 06:27:28 AM 38.9783 -78.8306 272° West 348 400 33,300 1,210 Climbing Washington Center
Mon 06:28:28 AM 38.9831 -78.9592 273° West 353 406 33,900 1,041 Climbing Washington Center
Mon 06:29:29 AM 38.9875 -79.0956 272° West 366 421 35,400 1,361 Climbing Washington Center
Mon 06:30:27 AM 38.9897 -79.2344 271° West 385 443 36,600 1,109 Climbing Washington Center
Mon 06:31:28 AM 38.9936 -79.3736 272° West 391 450 37,600 984 Climbing Washington Center
Mon 06:32:29 AM 38.9972 -79.5181 272° West 396 456 38,600 1,160 Climbing Washington Center
Mon 06:33:27 AM 39.0006 -79.6706 272° West 412 474 39,900 700 Climbing Washington Center
Mon 06:34:29 AM 39.0019 -79.8119 271° West 419 482 40,000 49 Climbing Washington Center
Mon 06:35:30 AM 39.0050 -79.9567 272° West 419 482 40,000  Level Washington Center
Mon 06:36:28 AM 39.0067 -80.0847 271° West 414 476 40,000  Level Washington Center
Mon 06:37:25 AM 39.0067 -80.2292 270° West 405 466 40,000  Level Indianapolis Center
Mon 06:38:26 AM 39.0086 -80.3739 271° West 407 468 40,000  Level Indianapolis Center
Mon 06:39:26 AM 39.0233 -80.5150 278° West 405 466 40,000  Level Indianapolis Center
Mon 06:40:27 AM 39.0817 -80.6453 300° West 422 486 40,000  Level Indianapolis Center
Mon 06:41:28 AM 39.1381 -80.7750 299° West 418 481 40,000  Level Indianapolis Center
Mon 06:42:28 AM 39.1953 -80.9050 300° West 418 481 40,000  Level Indianapolis Center
Mon 06:43:29 AM 39.2553 -81.0347 301° West 423 487 40,000  Level Indianapolis Center
Mon 06:44:30 AM 39.3119 -81.1656 299° West 420 483 40,000  Level Indianapolis Center
Mon 06:45:30 AM 39.3694 -81.2936 300° West 416 479 40,000  Level Indianapolis Center
Mon 06:46:31 AM 39.4253 -81.4222 299° West 413 475 40,000  Level Indianapolis Center
Mon 06:47:32 AM 39.4811 -81.5517 299° West 413 475 40,000  Level Indianapolis Center
Mon 06:48:33 AM 39.5378 -81.6806 300° West 413 475 40,000  Level Indianapolis Center
Mon 06:49:33 AM 39.5942 -81.8094 300° West 413 475 40,000  Level Indianapolis Center
Mon 06:50:34 AM 39.6603 -81.9658 299° West 413 475 40,000  Level Indianapolis Center
Mon 06:51:35 AM 39.7125 -82.0869 299° West 413 475 40,000  Level Indianapolis Center
Mon 06:52:36 AM 39.7697 -82.2178 300° West 414 476 40,000  Level Indianapolis Center
Mon 06:53:37 AM 39.8261 -82.3503 299° West 417 480 40,000  Level Indianapolis Center
Mon 06:54:37 AM 39.8828 -82.4844 299° West 420 483 40,000  Level Indianapolis Center
Mon 06:55:38 AM 39.9406 -82.6208 299° West 426 490 40,000  Level Indianapolis Center
Mon 06:56:39 AM 39.9975 -82.7550 299° West 423 487 40,000  Level Indianapolis Center
Mon 06:57:40 AM 40.0536 -82.8906 298° West 423 487 40,000  Level Indianapolis Center
Mon 06:58:41 AM 40.1092 -83.0242 299° West 418 481 40,000  Level Indianapolis Center
Mon 06:59:42 AM 40.1639 -83.1572 298° West 416 479 40,000  Level Indianapolis Center
Mon 07:00:43 AM 40.1983 -83.3006 288° West 414 476 40,000  Level Indianapolis Center
Mon 07:01:44 AM 40.2383 -83.4686 287° West 414 476 40,000 -590 Level Indianapolis Center
Mon 07:02:45 AM 40.2731 -83.6147 287° West 420 483 38,800 -1,180 Descending Indianapolis Center
Mon 07:03:46 AM 40.3056 -83.7528 287° West 415 478 37,600 -1,033 Descending Indianapolis Center
Mon 07:04:47 AM 40.3386 -83.9003 286° West 425 489 36,700 -934 Descending Indianapolis Center
Mon 07:05:48 AM 40.3714 -84.0575 285° West 420 483 35,700 -992 Descending Indianapolis Center
Mon 07:06:48 AM 40.4261 -84.1886 299° West 412 474 34,700 -992 Descending Indianapolis Center
Mon 07:07:49 AM 40.4947 -84.3094 307° West 410 472 33,700 -934 Descending Indianapolis Center
Mon 07:08:50 AM 40.5633 -84.4331 306° West 416 479 32,800 -939 Descending Indianapolis Center
Mon 07:09:44 AM 40.6264 -84.5456 306° West 420 483 31,900 -991 Descending Chicago Center
Mon 07:10:45 AM 40.6953 -84.6700 306° West 421 484 30,900 -934 Descending Chicago Center
Mon 07:11:46 AM 40.7644 -84.7917 307° West 418 481 30,000 -893 Descending Chicago Center
Mon 07:12:46 AM 40.8536 -84.8867 321° Northwest 411 473 29,100 -942 Descending Chicago Center
Mon 07:13:47 AM 40.9419 -84.9800 321° Northwest 409 471 28,100 -984 Descending Chicago Center
Mon 07:14:48 AM 41.0275 -85.0747 320° Northwest 404 465 27,100 -984 Descending Chicago Center
Mon 07:15:49 AM 41.1119 -85.1667 321° Northwest 397 457 26,100 -984 Descending Chicago Center
Mon 07:16:50 AM 41.1964 -85.2592 321° Northwest 394 453 25,100 -984 Descending Chicago Center
Mon 07:17:51 AM 41.2789 -85.3508 320° Northwest 389 448 24,100 -984 Descending Chicago Center
Mon 07:18:52 AM 41.3306 -85.4725 300° West 379 436 23,100 -984 Descending Chicago Center
Mon 07:19:53 AM 41.3750 -85.5992 295° West 376 433 22,100 -984 Descending Chicago Center
Mon 07:20:54 AM 41.4189 -85.7225 295° West 368 423 21,100 -1,033 Descending Chicago Center
Mon 07:21:55 AM 41.4622 -85.8456 295° West 366 421 20,000 -1,525 Descending Chicago Center
Mon 07:22:56 AM 41.5028 -85.9656 294° West 356 410 18,000 -2,195 Descending Chicago Center
Mon 07:23:58 AM 41.5236 -86.1133 281° West 345 397 15,500 -2,244 Descending Chicago Center
Mon 07:24:59 AM 41.5228 -86.2378 270° West 337 388 13,400 -2,016 Descending Chicago Center
Mon 07:26:00 AM 41.5231 -86.3594 270° West 331 381 11,400 -1,180 Descending Chicago Center
Mon 07:27:01 AM 41.5222 -86.4767 269° West 320 368 11,000 -689 Descending Chicago Center
Mon 07:28:02 AM 41.5208 -86.5942 269° West 318 366 10,000 -488 Descending Chicago Center
Mon 07:29:04 AM 41.5206 -86.7142 270° West 319 367 10,000  Level Chicago Center
Mon 07:30:05 AM 41.5186 -86.8306 269° West 317 365 10,000 -492 Level Chicago Center
Mon 07:31:06 AM 41.5181 -86.9447 270° West 313 360 9,000 -1,279 Descending Chicago Center
Mon 07:32:07 AM 41.5167 -87.0514 269° West 297 342 7,400 -1,268 Descending Chicago Center
Mon 07:33:09 AM 41.5428 -87.1414 291° West 280 322 6,400 -1,103 Descending Chicago Center
Mon 07:33:34 AM 41.5667 -87.2000 299° West 267 307 5,800 -1,129 Descending Chicago TRACON
Mon 07:34:34 AM 41.6000 -87.2833 298° West 265 305 4,800 -893 Descending Chicago TRACON
Mon 07:35:35 AM 41.6333 -87.3667 298° West 258 297 4,000 -667 Descending Chicago TRACON
Mon 07:36:13 AM 41.6514 -87.4144 297° West 262 302 3,700 -606 Descending Chicago Center
Mon 07:37:14 AM 41.6836 -87.4961 298° West 257 296 3,000 -585 Descending Chicago Center
Mon 07:38:16 AM 41.7203 -87.5650 306° West 242 278 2,500 -293 Descending Chicago Center
Mon 07:39:17 AM 41.7658 -87.6086 324° Northwest 216 249 2,400 -380 Descending Chicago Center
Mon 07:39:35 AM 41.7833 -87.6333 314° West 178 205 2,000 -615 Descending Chicago TRACON
Mon 07:40:35 AM 41.8167 -87.6667 323° Northwest 143 165 1,600 -350 Descending Chicago TRACON
Mon 07:41:35 AM 41.8167 -87.7167 270° West 127 146 1,300 -300 Descending Chicago TRACON
Mon 07:44:00 AM 41.7833 -87.7500 299° West  Level FlightAware Approximate

Login

Don't have an account? Register now (free) for customized features, flight alerts, and more!